Time;durP1;ratioP1;P1;durP2;ratioP2;P2;SDS_P1;SDS_P2;PMS_P1;PMS_P2;Temp;Humidity;BMP_temperature;BMP_pressure;BME280_temperature;BME280_humidity;BME280_pressure;Samples;Min_cycle;Max_cycle;Signal;HPM_P1;HPM_P2
2021/01/11 00:00:18;;;;;;;24.05;16.45;;;-2.90;87.60;;;;;;5051618;28;20229;-78
2021/01/11 00:02:44;;;;;;;23.98;16.67;;;-2.90;87.70;;;;;;5051727;28;20208;-78
2021/01/11 00:05:12;;;;;;;22.45;16.92;;;-2.90;87.90;;;;;;5052112;28;20214;-78
2021/01/11 00:07:41;;;;;;;24.63;18.30;;;-2.90;88.10;;;;;;5051410;28;20224;-78
2021/01/11 00:10:09;;;;;;;25.90;18.02;;;-3.00;89.30;;;;;;5052242;28;20199;-78
2021/01/11 00:12:36;;;;;;;24.65;18.42;;;-3.10;90.50;;;;;;5050881;28;20204;-78
2021/01/11 00:15:04;;;;;;;27.08;19.50;;;-3.00;91.20;;;;;;5052023;28;20581;-77
2021/01/11 00:17:31;;;;;;;26.20;17.27;;;-3.00;91.00;;;;;;5051322;28;20212;-77
2021/01/11 00:19:57;;;;;;;28.30;16.60;;;-3.00;90.60;;;;;;5051575;28;20642;-78
2021/01/11 00:22:24;;;;;;;18.70;13.75;;;-3.10;89.20;;;;;;5051597;28;20208;-77
2021/01/11 00:24:51;;;;;;;22.63;14.50;;;-3.10;88.40;;;;;;5051278;28;20208;-78
2021/01/11 00:27:17;;;;;;;21.15;14.93;;;-3.20;88.20;;;;;;5050472;28;20227;-77
2021/01/11 00:29:44;;;;;;;26.23;17.88;;;-3.20;88.40;;;;;;5052241;28;20234;-78
2021/01/11 00:32:10;;;;;;;24.08;17.83;;;-3.20;88.80;;;;;;5051053;28;20234;-78
2021/01/11 00:34:36;;;;;;;22.95;17.05;;;-3.20;89.30;;;;;;5052010;28;20223;-77
2021/01/11 00:37:03;;;;;;;28.38;18.73;;;-3.20;89.60;;;;;;5051241;28;20196;-77
2021/01/11 00:39:29;;;;;;;20.15;14.88;;;-3.20;90.30;;;;;;5051362;28;20226;-78
2021/01/11 00:41:57;;;;;;;26.70;18.35;;;-3.10;89.90;;;;;;5051225;28;20224;-77
2021/01/11 00:44:24;;;;;;;23.05;14.93;;;-3.20;89.80;;;;;;5051619;28;20228;-77
2021/01/11 00:46:51;;;;;;;19.30;14.48;;;-3.30;89.20;;;;;;5051176;28;20618;-77
2021/01/11 00:49:17;;;;;;;22.52;14.23;;;-3.30;87.80;;;;;;5051262;28;20255;-78
2021/01/11 00:51:44;;;;;;;20.95;13.85;;;-3.40;87.00;;;;;;5051597;28;20297;-78
2021/01/11 00:54:11;;;;;;;20.52;13.32;;;-3.40;87.30;;;;;;5050693;28;20207;-78
2021/01/11 00:56:37;;;;;;;22.45;14.95;;;-3.40;88.10;;;;;;5050790;28;20208;-78
2021/01/11 00:59:04;;;;;;;24.80;14.55;;;-3.50;88.00;;;;;;5050409;28;20208;-77
2021/01/11 01:01:31;;;;;;;20.15;13.65;;;-3.40;88.40;;;;;;5051462;28;20241;-78
2021/01/11 01:03:58;;;;;;;17.63;12.82;;;-3.50;88.90;;;;;;5051901;28;20262;-78
2021/01/11 01:06:26;;;;;;;19.30;13.70;;;-3.50;88.50;;;;;;5051300;28;20224;-78
2021/01/11 01:08:52;;;;;;;24.77;15.55;;;-3.50;88.30;;;;;;5049612;28;20254;-78
2021/01/11 01:11:19;;;;;;;21.38;13.77;;;-3.50;88.30;;;;;;5052329;28;20204;-77
2021/01/11 01:13:48;;;;;;;18.48;12.98;;;-3.60;88.10;;;;;;5050679;28;20322;-78
2021/01/11 01:16:26;;;;;;;22.00;14.55;;;-3.60;87.50;;;;;;5051500;28;20199;-78
2021/01/11 01:18:52;;;;;;;21.15;13.65;;;-3.60;87.70;;;;;;5050719;28;20224;-78
2021/01/11 01:21:19;;;;;;;20.25;14.38;;;-3.60;89.60;;;;;;5050760;28;20234;-79
2021/01/11 01:23:45;;;;;;;19.80;15.60;;;-3.60;88.60;;;;;;5050221;28;20261;-77
2021/01/11 01:26:11;;;;;;;18.00;13.82;;;-3.50;88.20;;;;;;5050785;28;20200;-78
2021/01/11 01:28:38;;;;;;;23.23;15.40;;;-3.50;87.80;;;;;;5048984;28;20274;-78
2021/01/11 01:31:04;;;;;;;19.80;13.45;;;-3.40;88.40;;;;;;5049007;28;20273;-78
2021/01/11 01:33:32;;;;;;;20.45;13.98;;;-3.50;88.20;;;;;;5050321;28;20677;-78
2021/01/11 01:35:58;;;;;;;20.15;14.43;;;-3.50;87.70;;;;;;5049703;28;20207;-78
2021/01/11 01:38:25;;;;;;;23.48;15.20;;;-3.50;88.40;;;;;;5049792;28;20556;-78
2021/01/11 01:40:51;;;;;;;23.00;14.57;;;-3.50;87.70;;;;;;5050412;28;20193;-78
2021/01/11 01:43:18;;;;;;;17.60;13.70;;;-3.50;86.90;;;;;;5050549;28;20200;-77
2021/01/11 01:45:44;;;;;;;20.00;15.63;;;-3.60;85.90;;;;;;5050653;28;20203;-77
2021/01/11 01:48:11;;;;;;;18.50;13.27;;;-3.70;85.60;;;;;;5050638;28;20243;-77
2021/01/11 01:50:40;;;;;;;22.70;14.43;;;-3.80;85.50;;;;;;5050534;28;20250;-78
2021/01/11 01:53:07;;;;;;;21.63;14.00;;;-3.80;86.00;;;;;;5050661;28;20657;-78
2021/01/11 01:55:35;;;;;;;20.20;14.13;;;-3.80;86.20;;;;;;5051103;28;20212;-77
2021/01/11 01:58:04;;;;;;;18.38;12.27;;;-3.70;86.50;;;;;;5050699;28;20226;-78
2021/01/11 02:00:32;;;;;;;20.20;14.13;;;-3.80;86.90;;;;;;5050348;28;20330;-78
2021/01/11 02:02:59;;;;;;;23.35;15.27;;;-3.80;87.10;;;;;;5050035;28;20669;-77
2021/01/11 02:05:27;;;;;;;20.65;14.00;;;-3.80;87.30;;;;;;5051178;28;20204;-78
2021/01/11 02:08:05;;;;;;;24.20;15.20;;;-3.60;88.30;;;;;;5049736;28;20716;-77
2021/01/11 02:10:49;;;;;;;22.30;13.88;;;-3.70;87.20;;;;;;5051014;28;20230;-77
2021/01/11 02:13:36;;;;;;;22.88;15.18;;;-3.80;87.00;;;;;;5050500;28;20318;-77
2021/01/11 02:16:09;;;;;;;20.40;13.85;;;-3.80;88.60;;;;;;5050748;28;20665;-78
2021/01/11 02:18:45;;;;;;;19.75;14.75;;;-3.80;88.30;;;;;;5050177;28;20188;-78
2021/01/11 02:21:47;;;;;;;21.35;14.93;;;-3.80;88.00;;;;;;5050929;28;20200;-77
2021/01/11 02:24:56;;;;;;;18.83;13.30;;;-3.80;87.60;;;;;;5050661;28;20264;-78
2021/01/11 02:27:34;;;;;;;24.20;15.10;;;-3.80;88.00;;;;;;5025867;28;20223;-78
2021/01/11 02:30:28;;;;;;;21.65;14.65;;;-0.90;93.60;;;;;;5049323;28;20673;-78
2021/01/11 02:33:02;;;;;;;17.10;13.52;;;-3.80;88.90;;;;;;5051003;28;20208;-78
2021/01/11 02:35:31;;;;;;;21.67;14.00;;;-3.70;89.20;;;;;;5050569;28;20287;-78
2021/01/11 02:38:00;;;;;;;20.40;14.27;;;-3.70;87.70;;;;;;5048974;28;20869;-78
2021/01/11 02:40:28;;;;;;;21.10;14.60;;;-3.40;87.60;;;;;;5048784;28;20193;-78
2021/01/11 02:42:56;;;;;;;27.52;15.50;;;-3.80;87.40;;;;;;5049472;28;20751;-78
2021/01/11 02:45:23;;;;;;;25.55;16.27;;;-3.90;87.80;;;;;;5050168;28;20215;-77
2021/01/11 02:48:06;;;;;;;15.50;13.23;;;-3.80;88.00;;;;;;5044823;28;20220;-78
2021/01/11 02:50:44;;;;;;;21.70;14.45;;;-3.90;87.40;;;;;;5050150;28;20598;-78
2021/01/11 02:53:23;;;;;;;19.48;15.50;;;-3.90;87.40;;;;;;5053795;28;20223;-78
2021/01/11 02:55:57;;;;;;;23.25;15.77;;;-3.80;87.30;;;;;;5034445;28;20228;-78
2021/01/11 02:58:43;;;;;;;20.02;14.85;;;-3.80;87.50;;;;;;5052920;28;20230;-78
2021/01/11 03:01:15;;;;;;;21.77;15.88;;;-3.70;88.20;;;;;;5053746;28;20592;-78
2021/01/11 03:03:48;;;;;;;23.67;15.65;;;-3.70;88.90;;;;;;5054147;28;20204;-78
2021/01/11 03:06:16;;;;;;;21.40;14.77;;;-3.60;89.30;;;;;;5053983;28;20279;-78
2021/01/11 03:08:43;;;;;;;22.92;17.08;;;-3.60;89.50;;;;;;5053048;28;20282;-78
2021/01/11 03:11:09;;;;;;;21.25;15.02;;;-3.60;89.30;;;;;;5053601;28;20200;-78
2021/01/11 03:13:36;;;;;;;23.10;14.75;;;-3.60;88.60;;;;;;5053645;28;20678;-78
2021/01/11 03:16:04;;;;;;;18.58;12.80;;;-3.70;86.10;;;;;;5052952;28;20248;-78
2021/01/11 03:18:30;;;;;;;20.60;15.20;;;-3.90;84.70;;;;;;5052504;28;20196;-78
2021/01/11 03:20:57;;;;;;;23.30;15.00;;;-3.90;85.10;;;;;;5053276;28;20200;-78
2021/01/11 03:23:24;;;;;;;22.58;16.60;;;-3.90;85.30;;;;;;5053231;28;20192;-77
2021/01/11 03:25:50;;;;;;;20.65;13.93;;;-3.90;85.60;;;;;;5053539;28;20246;-78
2021/01/11 03:28:17;;;;;;;19.38;13.55;;;-3.90;85.60;;;;;;5052616;28;20602;-78
2021/01/11 03:30:43;;;;;;;18.95;14.07;;;-4.00;85.60;;;;;;5050864;28;20204;-78
2021/01/11 03:33:10;;;;;;;20.20;15.15;;;-3.90;86.20;;;;;;5053052;28;20200;-78
2021/01/11 03:35:36;;;;;;;20.77;15.35;;;-3.90;86.90;;;;;;5052853;28;20219;-78
2021/01/11 03:38:03;;;;;;;22.30;15.10;;;-3.90;88.10;;;;;;5052527;28;20204;-78
2021/01/11 03:40:30;;;;;;;23.13;14.95;;;-4.00;88.50;;;;;;5052630;28;20207;-78
2021/01/11 03:42:57;;;;;;;22.08;14.43;;;-4.00;85.70;;;;;;5052265;28;20611;-78
2021/01/11 03:45:24;;;;;;;22.88;15.23;;;-4.20;84.30;;;;;;5053823;28;20196;-78
2021/01/11 03:47:50;;;;;;;20.85;15.05;;;-4.10;84.40;;;;;;5051498;28;20207;-78
2021/01/11 03:50:17;;;;;;;20.33;13.95;;;-4.20;84.50;;;;;;5052806;28;20236;-78
2021/01/11 03:52:43;;;;;;;25.83;14.38;;;-4.10;85.10;;;;;;5052255;28;20204;-78
2021/01/11 03:55:11;;;;;;;19.90;14.02;;;-4.10;85.00;;;;;;5052506;28;20204;-77
2021/01/11 03:57:37;;;;;;;18.88;13.95;;;-3.90;84.90;;;;;;5051722;28;20254;-78
2021/01/11 04:00:06;;;;;;;21.50;15.95;;;-4.10;84.50;;;;;;5052679;28;20275;-78
2021/01/11 04:02:33;;;;;;;19.50;13.70;;;-4.10;84.80;;;;;;5052603;28;20192;-78
2021/01/11 04:04:59;;;;;;;18.35;14.13;;;-4.10;84.80;;;;;;5052934;28;20200;-78
2021/01/11 04:07:26;;;;;;;21.63;14.88;;;-4.10;84.30;;;;;;5051738;28;20249;-78
2021/01/11 04:09:52;;;;;;;22.50;14.20;;;-4.20;83.90;;;;;;5052367;28;20196;-78
2021/01/11 04:12:20;;;;;;;23.40;14.05;;;-4.20;84.70;;;;;;5052641;28;20234;-78
2021/01/11 04:14:46;;;;;;;20.27;13.85;;;-4.20;85.40;;;;;;5052170;28;20195;-78
2021/01/11 04:17:15;;;;;;;18.40;13.95;;;-4.40;84.90;;;;;;5051752;28;20229;-78
2021/01/11 04:19:42;;;;;;;17.13;13.10;;;-4.30;86.20;;;;;;5051692;28;20253;-79
2021/01/11 04:22:08;;;;;;;23.95;13.73;;;-4.30;85.30;;;;;;5052731;28;20231;-78
2021/01/11 04:24:35;;;;;;;17.98;14.77;;;-4.40;84.90;;;;;;5051370;28;20200;-78
2021/01/11 04:27:01;;;;;;;20.83;14.70;;;-4.50;86.00;;;;;;5051181;28;20207;-78
2021/01/11 04:29:29;;;;;;;20.02;14.88;;;-4.50;87.90;;;;;;5052328;28;20251;-77
2021/01/11 04:31:55;;;;;;;20.95;15.68;;;-4.40;87.60;;;;;;5051025;28;20200;-78
2021/01/11 04:34:21;;;;;;;23.05;15.25;;;-4.20;88.40;;;;;;5052577;28;20294;-78
2021/01/11 04:36:48;;;;;;;19.98;14.50;;;-4.20;85.80;;;;;;5052799;28;20196;-78
2021/01/11 04:39:14;;;;;;;21.08;14.15;;;-4.30;84.50;;;;;;5051584;28;20230;-77
2021/01/11 04:41:43;;;;;;;22.83;15.48;;;-4.40;84.30;;;;;;5052449;28;20212;-78
2021/01/11 04:44:11;;;;;;;22.23;15.45;;;-4.40;84.50;;;;;;5052162;28;20665;-78
2021/01/11 04:46:39;;;;;;;19.55;14.80;;;-4.50;84.80;;;;;;5052434;28;20676;-78
2021/01/11 04:49:05;;;;;;;23.05;15.60;;;-4.50;85.00;;;;;;5051049;28;20263;-78
2021/01/11 04:51:32;;;;;;;19.92;14.88;;;-4.50;85.10;;;;;;5070972;28;20665;-78
2021/01/11 04:54:00;;;;;;;19.95;15.35;;;-4.50;85.20;;;;;;5059331;28;20202;-78
2021/01/11 04:56:27;;;;;;;21.23;14.30;;;-4.40;85.10;;;;;;5051534;28;20204;-78
2021/01/11 04:58:56;;;;;;;24.70;14.52;;;-4.40;84.50;;;;;;5050674;28;20204;-78
2021/01/11 05:01:24;;;;;;;23.90;15.38;;;-4.50;84.50;;;;;;5051511;28;20207;-78
2021/01/11 05:03:52;;;;;;;23.95;16.80;;;-4.50;84.80;;;;;;5051178;28;20200;-78
2021/01/11 05:06:19;;;;;;;21.55;15.10;;;-4.40;85.10;;;;;;5051575;28;20200;-77
2021/01/11 05:08:46;;;;;;;27.50;16.80;;;-4.40;85.20;;;;;;5050195;28;20259;-78
2021/01/11 05:11:12;;;;;;;24.50;15.35;;;-4.40;85.70;;;;;;5050792;28;20700;-78
2021/01/11 05:13:39;;;;;;;20.30;14.60;;;-4.30;86.30;;;;;;5051361;28;20751;-78
2021/01/11 05:16:13;;;;;;;23.27;16.00;;;-4.40;86.40;;;;;;5051517;28;20239;-78
2021/01/11 05:18:40;;;;;;;21.48;15.48;;;-4.40;87.90;;;;;;5051252;28;20645;-78
2021/01/11 05:21:08;;;;;;;23.38;16.55;;;-4.40;87.50;;;;;;5052806;28;20204;-77
2021/01/11 05:23:36;;;;;;;22.92;15.05;;;-4.40;87.00;;;;;;5050649;28;20555;-78
2021/01/11 05:26:13;;;;;;;23.55;15.23;;;-4.30;86.90;;;;;;5051313;28;20226;-78
2021/01/11 05:28:40;;;;;;;21.20;15.00;;;-4.30;86.80;;;;;;5050433;28;20220;-78
2021/01/11 05:31:06;;;;;;;24.15;13.90;;;-4.20;86.60;;;;;;5049308;28;20235;-78
2021/01/11 05:33:33;;;;;;;21.10;14.95;;;-4.20;86.20;;;;;;5050528;28;20609;-78
2021/01/11 05:36:05;;;;;;;27.52;18.20;;;-4.20;86.30;;;;;;5050382;28;20831;-79
2021/01/11 05:38:37;;;;;;;21.00;14.85;;;-4.20;86.70;;;;;;5047389;28;20207;-79
2021/01/11 05:41:14;;;;;;;22.80;13.77;;;-4.10;86.90;;;;;;5050973;28;20204;-79
2021/01/11 05:43:40;;;;;;;21.15;12.88;;;-4.10;86.80;;;;;;5035565;28;20191;-79
2021/01/11 05:46:22;;;;;;;22.67;14.07;;;-4.00;86.40;;;;;;5050683;28;20196;-79
2021/01/11 05:48:57;;;;;;;22.77;14.20;;;-3.90;86.50;;;;;;5039001;28;20227;-79
2021/01/11 05:51:25;;;;;;;25.17;14.75;;;-3.90;87.50;;;;;;5050133;28;20234;-79
2021/01/11 05:53:52;;;;;;;20.58;14.07;;;-3.90;86.80;;;;;;5051134;28;20199;-79
2021/01/11 05:56:18;;;;;;;22.00;12.25;;;-4.00;86.00;;;;;;5051082;28;20238;-79
2021/01/11 05:59:03;;;;;;;20.00;14.00;;;-3.90;86.00;;;;;;5050193;28;20254;-79
2021/01/11 06:01:31;;;;;;;18.60;12.77;;;-4.10;84.20;;;;;;5051697;28;20207;-79
2021/01/11 06:03:57;;;;;;;20.42;13.95;;;-4.20;83.70;;;;;;5051112;28;20676;-79
2021/01/11 06:06:24;;;;;;;22.52;14.13;;;-4.30;83.60;;;;;;5050960;28;20200;-79
2021/01/11 06:08:52;;;;;;;19.63;14.10;;;-4.40;83.70;;;;;;5039752;28;20219;-79
2021/01/11 06:11:22;;;;;;;25.65;17.60;;;-4.40;83.80;;;;;;5050951;28;20204;-80
2021/01/11 06:13:50;;;;;;;21.27;16.77;;;-4.40;84.00;;;;;;5050538;28;20196;-79
2021/01/11 06:16:18;;;;;;;23.70;15.88;;;-4.50;84.00;;;;;;5052148;28;20241;-79
2021/01/11 06:18:45;;;;;;;24.48;14.88;;;-4.30;84.50;;;;;;5051092;28;20303;-79
2021/01/11 06:21:12;;;;;;;22.55;14.90;;;-4.30;84.30;;;;;;5051270;28;20775;-80
2021/01/11 06:23:39;;;;;;;20.92;12.90;;;-4.60;84.70;;;;;;5053691;28;20218;-80
2021/01/11 06:26:31;;;;;;;21.63;15.20;;;-4.80;86.00;;;;;;5054768;28;20228;-79
2021/01/11 06:28:58;;;;;;;17.83;13.20;;;-4.80;87.40;;;;;;5046342;28;20243;-79
2021/01/11 06:31:29;;;;;;;20.02;14.93;;;-4.70;87.60;;;;;;5053177;28;20540;-81
2021/01/11 06:33:56;;;;;;;22.73;14.55;;;-4.60;86.60;;;;;;5045699;28;20199;-80
2021/01/11 06:36:31;;;;;;;19.63;13.15;;;-4.60;86.10;;;;;;5052660;28;20195;-80
2021/01/11 06:39:07;;;;;;;21.70;13.95;;;-4.50;85.90;;;;;;5033014;28;20200;-81
2021/01/11 06:41:35;;;;;;;19.20;13.30;;;-4.50;85.20;;;;;;5033441;28;20293;-81
2021/01/11 06:44:05;;;;;;;18.70;12.75;;;-4.50;84.30;;;;;;5033731;28;20544;-81
2021/01/11 06:46:43;;;;;;;32.13;13.45;;;-4.60;83.50;;;;;;5032820;28;20638;-81
2021/01/11 06:49:22;;;;;;;22.35;13.25;;;-4.60;83.30;;;;;;5032856;28;20236;-81
2021/01/11 06:52:01;;;;;;;21.38;12.80;;;-4.60;83.30;;;;;;5032619;28;20204;-81
2021/01/11 06:54:41;;;;;;;20.38;12.10;;;-4.60;83.40;;;;;;5033139;28;20220;-81
2021/01/11 06:57:17;;;;;;;18.92;12.65;;;-4.70;83.80;;;;;;5032485;28;20209;-81
2021/01/11 06:59:46;;;;;;;23.40;14.50;;;-4.60;84.60;;;;;;5052992;28;20620;-82
2021/01/11 07:02:23;;;;;;;25.27;13.90;;;-4.70;84.60;;;;;;5055849;28;20193;-81
2021/01/11 07:04:51;;;;;;;19.80;14.00;;;-4.50;84.90;;;;;;5053323;28;20248;-81
2021/01/11 07:07:20;;;;;;;19.35;14.63;;;-4.50;84.60;;;;;;5050665;28;20197;-81
2021/01/11 07:09:50;;;;;;;18.55;15.10;;;-4.60;84.80;;;;;;5057868;28;20274;-81
2021/01/11 07:12:20;;;;;;;23.38;16.98;;;-4.50;85.40;;;;;;5068385;28;20718;-81
2021/01/11 07:14:58;;;;;;;26.58;15.63;;;-4.60;85.60;;;;;;5053431;28;20199;-80
2021/01/11 07:17:38;;;;;;;20.45;14.60;;;-4.50;86.40;;;;;;5059900;28;20225;-81
2021/01/11 07:20:07;;;;;;;22.90;15.70;;;-4.50;86.80;;;;;;5032743;28;20205;-81
2021/01/11 07:22:33;;;;;;;26.98;16.42;;;-4.40;87.20;;;;;;5048517;28;20214;-81
2021/01/11 07:25:07;;;;;;;24.15;14.75;;;-4.40;86.90;;;;;;5068806;28;20204;-81
2021/01/11 07:27:35;;;;;;;24.25;16.80;;;-4.30;86.70;;;;;;5064100;28;20192;-82
2021/01/11 07:30:01;;;;;;;25.23;16.50;;;-4.30;86.50;;;;;;5060062;28;20318;-81
2021/01/11 07:32:33;;;;;;;25.13;16.40;;;-4.20;86.60;;;;;;5056153;28;20927;-81
2021/01/11 07:35:01;;;;;;;28.02;17.77;;;-4.10;86.50;;;;;;5058467;28;20191;-80
2021/01/11 07:37:28;;;;;;;26.65;16.92;;;-4.10;86.40;;;;;;5064190;28;20196;-81
2021/01/11 07:39:55;;;;;;;29.27;16.77;;;-4.10;86.00;;;;;;5052678;28;20739;-81
2021/01/11 07:42:22;;;;;;;33.17;18.35;;;-4.10;86.60;;;;;;5052842;28;20196;-82
2021/01/11 07:45:05;;;;;;;31.83;18.40;;;-4.00;86.50;;;;;;5072619;28;20199;-81
2021/01/11 07:47:38;;;;;;;32.58;23.20;;;-3.80;86.90;;;;;;5072738;28;20661;-81
2021/01/11 07:50:13;;;;;;;31.42;19.00;;;-3.90;87.00;;;;;;5073257;28;20222;-82
2021/01/11 07:52:40;;;;;;;30.00;17.73;;;-3.80;87.10;;;;;;5066833;28;20187;-81
2021/01/11 07:55:14;;;;;;;24.10;16.95;;;-3.70;87.10;;;;;;5053184;28;20218;-81
2021/01/11 07:57:41;;;;;;;28.90;15.63;;;-3.70;87.10;;;;;;5068910;28;20192;-81
2021/01/11 08:03:25;;;;;;;31.48;17.15;;;-3.50;87.50;;;;;;5003238;28;20246;-82
2021/01/11 08:06:00;;;;;;;22.33;17.48;;;-3.40;87.40;;;;;;5052801;28;20257;-81
2021/01/11 08:08:28;;;;;;;30.67;17.70;;;-3.30;87.30;;;;;;5052401;28;20215;-82
2021/01/11 08:10:57;;;;;;;31.92;17.30;;;-3.30;87.10;;;;;;5052219;28;20200;-82
2021/01/11 08:13:24;;;;;;;25.98;16.55;;;-3.30;87.00;;;;;;5052161;28;20242;-81
2021/01/11 08:15:55;;;;;;;27.23;17.75;;;-3.10;87.20;;;;;;5052437;28;20204;-82
2021/01/11 08:18:25;;;;;;;30.38;18.02;;;-3.00;87.00;;;;;;5051869;28;20203;-82
2021/01/11 08:20:52;;;;;;;26.58;15.85;;;-2.90;86.80;;;;;;5052114;28;20684;-81
2021/01/11 08:23:22;;;;;;;22.75;13.85;;;-2.70;86.80;;;;;;5052060;28;20742;-82
2021/01/11 08:25:49;;;;;;;25.90;15.57;;;-2.70;86.70;;;;;;5051139;28;20291;-81
2021/01/11 08:28:16;;;;;;;22.65;15.48;;;-2.70;86.70;;;;;;5051488;28;20227;-82
2021/01/11 08:30:43;;;;;;;27.13;16.35;;;-2.60;86.40;;;;;;5051689;28;20211;-82
2021/01/11 08:33:09;;;;;;;25.40;16.00;;;-2.60;86.10;;;;;;5051949;28;20210;-82
2021/01/11 08:35:37;;;;;;;23.40;15.32;;;-2.40;86.10;;;;;;5051652;28;20200;-81
2021/01/11 08:38:05;;;;;;;25.13;16.48;;;-2.40;85.90;;;;;;5050662;28;20556;-82
2021/01/11 08:40:34;;;;;;;31.08;16.58;;;-2.30;85.90;;;;;;5052564;28;20196;-81
2021/01/11 08:43:11;;;;;;;21.60;16.08;;;-2.30;85.90;;;;;;5051504;28;20557;-81
2021/01/11 08:45:40;;;;;;;21.25;16.73;;;-2.30;86.00;;;;;;5051832;28;20206;-82
2021/01/11 08:48:08;;;;;;;25.98;16.70;;;-2.30;86.40;;;;;;5052293;28;20228;-81
2021/01/11 08:50:37;;;;;;;22.08;14.65;;;-2.30;86.80;;;;;;5052940;28;20188;-82
2021/01/11 08:53:20;;;;;;;25.67;16.92;;;-2.20;86.60;;;;;;5051804;28;20192;-81
2021/01/11 08:56:00;;;;;;;19.38;13.57;;;-2.20;86.60;;;;;;5051191;28;20195;-81
2021/01/11 08:58:27;;;;;;;21.63;14.98;;;-2.30;86.70;;;;;;5051603;28;20540;-81
2021/01/11 09:01:08;;;;;;;20.17;15.80;;;-2.30;87.80;;;;;;5052068;28;20211;-82
2021/01/11 09:03:42;;;;;;;20.23;14.13;;;-2.20;88.00;;;;;;5051901;28;20191;-81
2021/01/11 09:06:10;;;;;;;22.88;15.85;;;-2.00;87.30;;;;;;5051271;28;20657;-82
2021/01/11 09:08:40;;;;;;;19.13;14.35;;;-1.80;86.50;;;;;;5051525;28;20224;-82
2021/01/11 09:11:12;;;;;;;18.70;13.98;;;-2.00;87.00;;;;;;5051701;28;20200;-82
2021/01/11 09:13:38;;;;;;;20.58;14.00;;;-1.90;87.80;;;;;;5051785;28;20270;-81
2021/01/11 09:16:12;;;;;;;20.10;14.05;;;-1.80;87.70;;;;;;5051767;28;20203;-81
2021/01/11 09:18:39;;;;;;;31.65;20.48;;;-1.80;86.70;;;;;;5059734;28;20203;-81
2021/01/11 09:21:07;;;;;;;24.15;16.95;;;-1.80;85.70;;;;;;5072067;28;20207;-81
2021/01/11 09:23:34;;;;;;;24.45;15.82;;;-2.20;85.70;;;;;;5056072;28;20286;-81
2021/01/11 09:26:01;;;;;;;21.75;14.40;;;-1.90;87.30;;;;;;5051830;28;20199;-81
2021/01/11 09:28:28;;;;;;;22.17;14.75;;;-1.80;87.10;;;;;;5051160;28;20266;-81
2021/01/11 09:30:55;;;;;;;20.88;15.45;;;-1.60;86.40;;;;;;5050567;28;20196;-81
2021/01/11 09:33:21;;;;;;;20.92;13.52;;;-1.50;85.30;;;;;;5050800;28;20207;-81
2021/01/11 09:35:48;;;;;;;17.98;13.90;;;-1.60;84.40;;;;;;5051000;28;20683;-80
2021/01/11 09:38:15;;;;;;;20.55;13.45;;;-1.60;85.10;;;;;;5051088;28;20192;-80
2021/01/11 09:40:43;;;;;;;19.05;13.15;;;-1.50;85.00;;;;;;5050327;28;20214;-81
2021/01/11 09:43:12;;;;;;;21.52;14.35;;;-1.30;85.00;;;;;;5050646;28;20192;-81
2021/01/11 09:45:39;;;;;;;21.00;15.57;;;-1.10;84.50;;;;;;5049657;28;20196;-81
2021/01/11 09:48:06;;;;;;;19.70;13.63;;;-1.10;84.90;;;;;;5050439;28;20200;-80
2021/01/11 09:50:32;;;;;;;25.05;15.68;;;-1.10;84.50;;;;;;5051174;28;20196;-81
2021/01/11 09:53:01;;;;;;;21.48;14.38;;;-1.10;84.20;;;;;;5050220;28;20351;-81
2021/01/11 09:55:27;;;;;;;23.48;15.60;;;-1.10;84.40;;;;;;5050518;28;20208;-81
2021/01/11 09:57:55;;;;;;;28.50;14.95;;;-1.10;84.10;;;;;;5052448;28;20196;-81
2021/01/11 10:00:22;;;;;;;22.77;15.05;;;-1.70;84.00;;;;;;5054334;28;20257;-81
2021/01/11 10:02:49;;;;;;;19.50;14.15;;;-1.50;85.30;;;;;;5054554;28;20204;-81
2021/01/11 10:05:17;;;;;;;18.80;12.98;;;-1.20;84.90;;;;;;5053985;28;20196;-81
2021/01/11 10:07:43;;;;;;;22.35;14.02;;;-1.20;84.70;;;;;;5053694;28;20191;-81
2021/01/11 10:10:11;;;;;;;25.55;15.02;;;-1.20;84.60;;;;;;5053661;28;20265;-81
2021/01/11 10:12:38;;;;;;;20.90;14.57;;;-1.10;86.00;;;;;;5053064;28;20199;-81
2021/01/11 10:15:06;;;;;;;21.88;14.88;;;-0.90;85.20;;;;;;5053336;28;20210;-81
2021/01/11 10:17:33;;;;;;;22.80;14.63;;;-1.00;84.40;;;;;;5052851;28;20208;-81
2021/01/11 10:19:59;;;;;;;20.48;14.63;;;-1.00;84.60;;;;;;5053060;28;20212;-81
2021/01/11 10:22:28;;;;;;;19.25;14.40;;;-0.90;84.30;;;;;;5053241;28;20200;-81
2021/01/11 10:24:54;;;;;;;19.05;12.65;;;-0.70;84.20;;;;;;5053098;28;20208;-80
2021/01/11 10:27:20;;;;;;;21.15;13.45;;;-0.50;84.00;;;;;;5051834;28;20227;-81
2021/01/11 10:29:47;;;;;;;19.40;13.90;;;-1.20;82.80;;;;;;5053556;28;20595;-81
2021/01/11 10:32:14;;;;;;;17.25;12.98;;;-1.20;84.90;;;;;;5053841;28;20196;-81
2021/01/11 10:34:41;;;;;;;17.67;13.68;;;-1.40;84.30;;;;;;5053881;28;20658;-81
2021/01/11 10:37:12;;;;;;;22.38;12.60;;;-1.10;85.20;;;;;;5053464;28;20672;-81
2021/01/11 10:39:38;;;;;;;19.98;14.25;;;-1.20;84.00;;;;;;5053579;28;20200;-81
2021/01/11 10:42:05;;;;;;;16.23;12.70;;;-1.10;84.80;;;;;;5053974;28;20207;-81
2021/01/11 10:44:32;;;;;;;21.63;14.65;;;-0.90;85.10;;;;;;5054036;28;20207;-81
2021/01/11 10:47:00;;;;;;;17.80;12.95;;;-0.80;84.20;;;;;;5053654;28;20207;-81
2021/01/11 10:49:34;;;;;;;20.70;13.95;;;-0.60;83.90;;;;;;5053457;28;20257;-81
2021/01/11 10:52:01;;;;;;;16.00;12.07;;;-0.50;83.60;;;;;;5054253;28;20199;-81
2021/01/11 10:54:28;;;;;;;17.13;12.95;;;-0.40;84.00;;;;;;5053173;28;20200;-81
2021/01/11 10:56:54;;;;;;;18.00;11.93;;;-0.40;83.20;;;;;;5053101;28;20204;-81
2021/01/11 10:59:21;;;;;;;20.25;13.95;;;-0.30;83.10;;;;;;5053865;28;20208;-81
2021/01/11 11:01:49;;;;;;;17.55;11.60;;;-0.30;82.70;;;;;;5054598;28;20204;-81
2021/01/11 11:04:16;;;;;;;16.17;10.68;;;-0.50;81.00;;;;;;5054266;28;20716;-81
2021/01/11 11:06:43;;;;;;;18.85;12.45;;;-0.60;82.20;;;;;;5054750;28;20644;-81
2021/01/11 11:09:10;;;;;;;18.17;11.57;;;-0.30;83.10;;;;;;5048240;28;20215;-81
2021/01/11 11:11:37;;;;;;;16.83;14.02;;;-0.40;82.10;;;;;;5064319;28;20317;-81
2021/01/11 11:14:03;;;;;;;18.00;12.40;;;-0.40;82.00;;;;;;5055455;28;20196;-81
2021/01/11 11:16:30;;;;;;;20.30;12.20;;;-0.50;81.50;;;;;;5063443;28;20203;-81
2021/01/11 11:18:56;;;;;;;18.13;11.90;;;-0.50;82.20;;;;;;5053907;28;20696;-81
2021/01/11 11:21:23;;;;;;;18.65;13.77;;;-0.60;81.70;;;;;;5044083;28;21285;-81
2021/01/11 11:23:50;;;;;;;19.25;12.52;;;-0.80;81.90;;;;;;5065866;28;20192;-81
2021/01/11 11:26:21;;;;;;;16.38;12.93;;;-1.10;81.80;;;;;;5063950;28;20199;-81
2021/01/11 11:28:47;;;;;;;22.77;14.98;;;-0.80;83.80;;;;;;5058627;28;20220;-82
2021/01/11 11:31:15;;;;;;;16.15;11.10;;;-0.90;83.10;;;;;;5070733;28;20556;-81
2021/01/11 11:33:42;;;;;;;18.75;13.43;;;-0.80;83.00;;;;;;5056062;28;21331;-81
2021/01/11 11:36:08;;;;;;;17.02;13.05;;;-0.50;82.80;;;;;;5055398;28;20203;-80
2021/01/11 11:38:35;;;;;;;16.85;12.85;;;-0.30;82.30;;;;;;5053765;28;20208;-81
2021/01/11 11:41:02;;;;;;;17.55;12.23;;;-0.20;81.80;;;;;;5050264;28;20200;-81
2021/01/11 11:43:28;;;;;;;16.85;12.07;;;-0.30;80.30;;;;;;5054336;28;20196;-81
2021/01/11 11:45:55;;;;;;;16.63;12.35;;;-0.10;80.90;;;;;;5052384;28;20229;-81
2021/01/11 11:48:21;;;;;;;16.17;10.82;;;-0.10;79.50;;;;;;5051588;28;20192;-82
2021/01/11 11:50:48;;;;;;;20.42;13.25;;;-0.10;79.50;;;;;;5051817;28;20219;-81
2021/01/11 11:53:15;;;;;;;18.58;13.30;;;-0.70;78.70;;;;;;5052048;28;20642;-81
2021/01/11 11:55:41;;;;;;;19.02;12.73;;;-0.80;82.20;;;;;;5052301;28;20232;-81
2021/01/11 11:58:09;;;;;;;16.20;11.20;;;-0.70;81.80;;;;;;5050576;28;20223;-82
2021/01/11 12:00:35;;;;;;;15.60;12.27;;;-0.70;81.70;;;;;;5052112;28;20212;-81
2021/01/11 12:03:02;;;;;;;14.65;10.85;;;-0.90;81.20;;;;;;5051431;28;20192;-81
2021/01/11 12:05:28;;;;;;;15.52;12.43;;;-0.70;81.60;;;;;;5052057;28;20606;-82
2021/01/11 12:07:55;;;;;;;16.15;11.70;;;-0.50;81.70;;;;;;5051269;28;20192;-81
2021/01/11 12:10:21;;;;;;;17.58;11.85;;;-0.20;81.80;;;;;;5051781;28;20224;-81
2021/01/11 12:12:48;;;;;;;16.35;11.27;;;0.10;80.80;;;;;;5051745;28;20200;-82
2021/01/11 12:15:17;;;;;;;19.75;12.90;;;0.30;80.30;;;;;;5052225;28;20242;-81
2021/01/11 12:17:45;;;;;;;16.60;12.13;;;0.40;79.50;;;;;;5032754;28;20224;-82
2021/01/11 12:20:12;;;;;;;19.42;12.85;;;0.40;79.40;;;;;;5051095;28;20953;-81
2021/01/11 12:22:39;;;;;;;18.25;12.13;;;0.60;79.50;;;;;;5051631;28;20221;-82
2021/01/11 12:25:06;;;;;;;19.50;11.18;;;0.60;79.30;;;;;;5051384;28;20196;-81
2021/01/11 12:27:33;;;;;;;14.35;10.82;;;0.40;78.50;;;;;;5050935;28;20208;-82
2021/01/11 12:30:00;;;;;;;16.50;11.73;;;0.50;78.80;;;;;;5051530;28;20220;-81
2021/01/11 12:32:27;;;;;;;15.10;10.45;;;0.50;78.70;;;;;;5052078;28;20212;-81
2021/01/11 12:34:54;;;;;;;16.55;13.27;;;0.60;78.50;;;;;;5051550;28;20568;-81
2021/01/11 12:37:20;;;;;;;14.40;10.98;;;0.60;78.30;;;;;;5050290;28;20199;-81
2021/01/11 12:39:47;;;;;;;15.70;10.95;;;0.70;78.20;;;;;;5048709;28;20610;-81